Portada
METAR-TAF:

METAR-TAF

Aeropuertos :

Seyresse

Dax, Francia

latitud: 43-41N, longitud: 001-04W, altitud: 32 m

Observación

El informe se hizo hace 34 minutos, a las 12:00 UTC
Viento 6 kt del oeste, variando entre suroeste y noroeste
Temperatura 19°C
Humedad 68%
Presión 1015 hPa
Visibilidad 10 km o más

METAR: LFBY 261200Z AUTO 26006KT 230V310 9999 // ////// 19/13 Q1015

Hora: 14:34 (12:34 UTC)


TAF: falta

Observaciones y pronósticos meteorológicos de más de 4000 aeropuertos (mensajes METAR y TAF).

Los puntos amarillos y rojos representan las estaciones disponibles.

Ponga el ratón en el punto deseado para ver el nombre de la estación.

Haga clic para ver las observaciones y los pronósticos meteorológicos.

Para cambiar el mapa : haga clic en los botones verdes con una cruz de color negro para hacer un zoom, en el botón verde con un guión para alejar o en las flechas verdes para mapas adyacentes.


METAR-TAF: